Time;durP1;ratioP1;P1;durP2;ratioP2;P2;SDS_P1;SDS_P2;PMS_P1;PMS_P2;Temp;Humidity;BMP_temperature;BMP_pressure;BME280_temperature;BME280_humidity;BME280_pressure;Samples;Min_cycle;Max_cycle;Signal;HPM_P1;HPM_P2
2023/12/03 00:00:51;;;;;;;2.40;1.07;;;-0.30;44.60;;;;;;4856736;29;20531;-73
2023/12/03 00:03:22;;;;;;;1.20;0.87;;;-0.30;44.20;;;;;;4848851;29;20459;-72
2023/12/03 00:05:54;;;;;;;0.83;0.60;;;;;;;;;;4858027;29;21008;-73
2023/12/03 00:08:24;;;;;;;1.07;0.70;;;;;;;;;;4865421;29;20558;-73
2023/12/03 00:11:11;;;;;;;0.60;0.10;;;;;;;;;;4848271;29;20444;-73
2023/12/03 00:13:47;;;;;;;1.10;0.50;;;;;;;;;;4847734;29;20460;-73
2023/12/03 00:16:20;;;;;;;2.70;0.50;;;;;;;;;;4853527;29;20483;-73
2023/12/03 00:18:57;;;;;;;1.37;1.27;;;-0.10;46.10;;;;;;4858962;29;20462;-73
2023/12/03 00:21:44;;;;;;;4.83;2.37;;;;;;;;;;4865358;29;20457;-73
2023/12/03 00:24:29;;;;;;;1.50;1.07;;;;;;;;;;4856988;29;20462;-73
2023/12/03 00:27:05;;;;;;;2.50;1.30;;;;;;;;;;4859363;29;20502;-72
2023/12/03 00:29:34;;;;;;;4.87;3.87;;;;;;;;;;4854314;29;20558;-73
2023/12/03 00:32:03;;;;;;;2.50;2.30;;;;;;;;;;4849749;29;20529;-69
2023/12/03 00:34:32;;;;;;;4.23;2.80;;;-0.10;62.70;;;;;;4852839;29;20451;-74
2023/12/03 00:37:01;;;;;;;2.50;0.73;;;;;;;;;;4862878;29;20523;-76
2023/12/03 00:39:29;;;;;;;5.13;2.53;;;-0.20;52.20;;;;;;4862496;29;20455;-73
2023/12/03 00:41:57;;;;;;;1.80;0.93;;;-0.20;48.90;;;;;;4862184;29;20519;-72
2023/12/03 00:44:26;;;;;;;2.60;2.40;;;-0.30;48.70;;;;;;4863336;29;20853;-73
2023/12/03 00:46:55;;;;;;;3.03;2.27;;;-0.30;49.00;;;;;;4863683;29;20475;-73
2023/12/03 00:49:23;;;;;;;0.70;0.20;;;-0.30;50.40;;;;;;4865055;29;20570;-74
2023/12/03 00:51:51;;;;;;;3.07;1.50;;;-0.30;50.60;;;;;;4856283;29;20471;-74
2023/12/03 00:54:19;;;;;;;4.40;1.73;;;-0.40;49.40;;;;;;4863297;29;20951;-73
2023/12/03 00:56:47;;;;;;;9.37;3.00;;;-0.50;49.80;;;;;;4862998;29;20835;-74
2023/12/03 00:59:15;;;;;;;0.93;0.60;;;-0.60;51.80;;;;;;4864844;29;20489;-73
2023/12/03 01:17:53;;;;;;;1.43;0.50;;;-0.70;53.20;;;;;;4852146;29;20935;-74
2023/12/03 01:20:21;;;;;;;4.73;2.90;;;-0.70;51.60;;;;;;4850837;29;20544;-74
2023/12/03 01:22:49;;;;;;;1.20;0.93;;;-0.80;53.90;;;;;;4858019;29;20479;-73
2023/12/03 01:25:17;;;;;;;3.33;3.03;;;-0.70;54.30;;;;;;4849282;29;20498;-73
2023/12/03 01:27:44;;;;;;;3.37;2.77;;;-0.80;55.40;;;;;;4854228;29;20567;-72
2023/12/03 01:30:13;;;;;;;1.33;1.07;;;-0.80;54.50;;;;;;4855310;29;20517;-72
2023/12/03 01:32:41;;;;;;;0.87;0.77;;;-0.80;54.30;;;;;;4865560;29;20440;-73
2023/12/03 01:35:10;;;;;;;0.70;0.20;;;-0.80;54.00;;;;;;4858393;29;20460;-74
2023/12/03 01:37:38;;;;;;;3.37;2.50;;;-0.80;54.90;;;;;;4851841;29;20527;-73
2023/12/03 01:40:08;;;;;;;1.33;0.90;;;-0.80;56.40;;;;;;4849817;29;20448;-72
2023/12/03 01:42:36;;;;;;;3.40;2.50;;;-0.80;55.10;;;;;;4850323;29;20463;-73
2023/12/03 01:45:05;;;;;;;1.50;0.83;;;-0.80;56.30;;;;;;4847815;29;21014;-73
2023/12/03 01:47:34;;;;;;;6.97;3.90;;;-0.80;57.70;;;;;;4848805;29;20471;-71
2023/12/03 01:50:06;;;;;;;8.10;4.43;;;-0.90;55.30;;;;;;4841566;29;21062;-72
2023/12/03 01:52:36;;;;;;;0.70;0.10;;;-0.90;56.90;;;;;;4849605;29;20955;-72
2023/12/03 01:55:06;;;;;;;3.23;2.00;;;-0.80;58.60;;;;;;4848755;29;20485;-72
2023/12/03 01:57:35;;;;;;;1.37;1.27;;;-0.80;56.50;;;;;;4855895;29;20477;-73
2023/12/03 02:00:04;;;;;;;1.43;1.13;;;-0.80;56.60;;;;;;4861031;29;20545;-71
2023/12/03 02:02:32;;;;;;;2.83;2.53;;;-0.70;57.10;;;;;;4862576;29;20520;-72
2023/12/03 02:05:00;;;;;;;2.83;1.80;;;-0.60;57.60;;;;;;4856576;29;20452;-73
2023/12/03 02:07:28;;;;;;;1.23;0.73;;;-0.70;55.00;;;;;;4850614;29;20507;-74
2023/12/03 02:09:59;;;;;;;2.00;0.80;;;-0.70;55.70;;;;;;4842491;29;20527;-73
2023/12/03 02:12:28;;;;;;;2.20;1.30;;;-0.60;54.40;;;;;;4841338;29;20456;-71
2023/12/03 02:14:55;;;;;;;0.80;0.30;;;-0.70;52.30;;;;;;4852699;29;20599;-72
2023/12/03 02:17:23;;;;;;;2.80;1.23;;;-0.70;52.70;;;;;;4859713;29;20478;-72
2023/12/03 02:19:51;;;;;;;6.80;4.30;;;-0.70;52.40;;;;;;4859850;29;20471;-72
2023/12/03 02:22:19;;;;;;;5.60;3.30;;;-0.80;51.80;;;;;;4859867;29;20541;-71
2023/12/03 02:24:48;;;;;;;1.70;0.90;;;-1.00;52.20;;;;;;4859788;29;20906;-71
2023/12/03 02:27:16;;;;;;;5.47;1.97;;;-0.90;54.70;;;;;;4853961;29;21064;-71
2023/12/03 02:29:47;;;;;;;3.73;2.13;;;-1.00;55.00;;;;;;4858577;29;20551;-72
2023/12/03 02:32:15;;;;;;;5.50;2.40;;;-1.00;54.50;;;;;;4859804;29;20978;-72
2023/12/03 02:34:43;;;;;;;4.40;1.90;;;-1.10;57.00;;;;;;4851980;29;20454;-71
2023/12/03 02:37:11;;;;;;;0.90;0.30;;;-1.10;54.50;;;;;;4860236;29;20554;-71
2023/12/03 02:39:39;;;;;;;10.93;2.97;;;-1.10;55.70;;;;;;4860215;29;20542;-72
2023/12/03 02:42:08;;;;;;;0.80;0.40;;;-1.10;55.10;;;;;;4861248;29;20464;-71
2023/12/03 02:44:36;;;;;;;5.67;2.87;;;-1.20;54.40;;;;;;4861592;29;20526;-73
2023/12/03 02:47:05;;;;;;;4.60;2.40;;;-1.20;57.10;;;;;;4861959;29;20794;-73
2023/12/03 02:49:33;;;;;;;1.20;1.00;;;-1.00;58.40;;;;;;4862397;29;20493;-73
2023/12/03 02:52:01;;;;;;;10.00;6.97;;;-1.00;57.90;;;;;;4864871;29;20554;-73
2023/12/03 02:54:29;;;;;;;1.23;1.13;;;-1.00;59.80;;;;;;4850466;29;20825;-73
2023/12/03 02:56:57;;;;;;;3.40;2.80;;;-0.90;58.90;;;;;;4886676;23;20492;-75
2023/12/03 02:59:26;;;;;;;1.37;1.27;;;-0.80;61.90;;;;;;4888479;29;20446;-73
2023/12/03 03:01:54;;;;;;;2.07;1.97;;;-0.70;60.60;;;;;;4884163;29;20451;-71
2023/12/03 03:04:22;;;;;;;0.70;0.20;;;-0.70;59.20;;;;;;4883469;29;20454;-73
2023/12/03 03:06:49;;;;;;;0.80;0.30;;;-0.70;58.90;;;;;;4893123;29;20466;-74
2023/12/03 03:09:17;;;;;;;3.10;2.77;;;-0.70;58.30;;;;;;4896415;29;20445;-74
2023/12/03 03:11:45;;;;;;;1.57;1.13;;;-0.70;57.70;;;;;;4895347;29;20486;-72
2023/12/03 03:14:13;;;;;;;0.70;0.27;;;-0.70;56.70;;;;;;4898997;29;20484;-74
2023/12/03 03:16:42;;;;;;;1.27;1.13;;;-0.70;56.70;;;;;;4889458;29;20506;-74
2023/12/03 03:19:10;;;;;;;9.90;3.90;;;-0.70;56.10;;;;;;4889654;29;20526;-73
2023/12/03 03:21:39;;;;;;;1.37;0.50;;;-0.70;56.90;;;;;;4893711;29;20449;-72
2023/12/03 03:24:07;;;;;;;2.70;1.60;;;-0.70;57.80;;;;;;4890713;29;20450;-72
2023/12/03 03:26:35;;;;;;;0.70;0.20;;;-0.90;56.70;;;;;;4882738;29;21042;-71
2023/12/03 03:29:05;;;;;;;1.10;0.93;;;-0.90;59.70;;;;;;4894216;29;20540;-72
2023/12/03 03:31:34;;;;;;;3.37;2.13;;;-0.80;59.40;;;;;;4885759;29;20862;-75
2023/12/03 03:34:04;;;;;;;3.30;3.00;;;-0.80;59.70;;;;;;4884027;29;20941;-73
2023/12/03 03:36:32;;;;;;;1.00;0.60;;;-0.90;58.80;;;;;;4900962;29;20474;-74
2023/12/03 03:39:00;;;;;;;2.67;1.33;;;-0.90;58.80;;;;;;4891362;29;20457;-73
2023/12/03 03:41:28;;;;;;;2.90;2.10;;;-0.90;61.00;;;;;;4882316;29;20450;-74
2023/12/03 03:43:55;;;;;;;0.70;0.10;;;-0.80;62.60;;;;;;4881954;29;20833;-74
2023/12/03 03:46:23;;;;;;;3.03;1.30;;;-0.80;62.50;;;;;;4882190;29;20525;-73
2023/12/03 03:48:51;;;;;;;4.93;1.50;;;-0.90;62.10;;;;;;4883790;29;20462;-71
2023/12/03 03:51:21;;;;;;;9.60;5.53;;;;;;;;;;4887748;29;20492;-72
2023/12/03 03:53:49;;;;;;;0.90;0.80;;;-0.90;62.80;;;;;;4885763;29;20513;-73
2023/12/03 03:56:17;;;;;;;6.30;5.70;;;-1.00;63.00;;;;;;4892134;29;20520;-73
2023/12/03 03:58:45;;;;;;;2.30;1.63;;;-1.10;66.30;;;;;;4900999;29;20485;-74
2023/12/03 04:01:13;;;;;;;2.97;1.27;;;-1.10;69.90;;;;;;4895786;29;20477;-73
2023/12/03 04:03:41;;;;;;;3.87;2.83;;;-1.00;69.30;;;;;;4895636;29;20537;-73
2023/12/03 04:06:09;;;;;;;0.70;0.40;;;-1.00;71.00;;;;;;4884220;29;20463;-73
2023/12/03 04:08:39;;;;;;;0.70;0.30;;;-1.00;71.20;;;;;;4893767;29;20446;-73
2023/12/03 04:11:08;;;;;;;0.80;0.47;;;-0.90;72.60;;;;;;4905485;29;20533;-73
2023/12/03 04:13:37;;;;;;;0.67;0.10;;;-0.80;72.50;;;;;;4887957;29;20457;-74
2023/12/03 04:16:06;;;;;;;0.70;0.20;;;-0.80;72.20;;;;;;4887144;29;20484;-72
2023/12/03 04:18:34;;;;;;;6.03;2.60;;;-0.70;71.60;;;;;;4887327;29;20505;-72
2023/12/03 04:21:14;;;;;;;4.83;1.60;;;-0.70;69.50;;;;;;4882149;29;20437;-72
2023/12/03 04:23:44;;;;;;;1.00;0.83;;;-0.70;67.80;;;;;;4882123;29;20446;-73
2023/12/03 04:26:12;;;;;;;1.70;1.60;;;-0.60;68.90;;;;;;4899953;29;20828;-72
2023/12/03 04:28:41;;;;;;;0.67;0.10;;;-0.60;70.00;;;;;;4884245;29;20506;-72
2023/12/03 04:31:21;;;;;;;2.33;1.83;;;-0.70;68.10;;;;;;4886110;29;20925;-72
2023/12/03 04:33:50;;;;;;;2.30;2.10;;;-0.80;66.30;;;;;;4899719;29;20620;-73
2023/12/03 04:36:19;;;;;;;3.17;1.40;;;-0.90;67.90;;;;;;4897201;29;20476;-74
2023/12/03 04:38:48;;;;;;;1.83;1.07;;;-1.00;69.00;;;;;;4902119;29;20455;-74
2023/12/03 04:41:16;;;;;;;4.80;3.73;;;-1.10;70.90;;;;;;4888348;29;20514;-71
2023/12/03 04:43:44;;;;;;;0.70;0.20;;;-1.20;73.60;;;;;;4885440;29;21002;-70
2023/12/03 04:46:12;;;;;;;2.87;2.67;;;-1.20;77.80;;;;;;4881810;29;20528;-72
2023/12/03 04:48:41;;;;;;;6.33;4.00;;;-1.30;79.30;;;;;;4881195;29;20502;-73
2023/12/03 04:51:12;;;;;;;13.23;3.20;;;-1.20;84.20;;;;;;4895025;29;20487;-73
2023/12/03 04:53:40;;;;;;;1.00;0.53;;;-1.20;83.40;;;;;;4891626;29;20461;-73
2023/12/03 04:56:10;;;;;;;2.17;1.77;;;-1.10;85.00;;;;;;4883721;29;20474;-72
2023/12/03 04:58:38;;;;;;;3.27;2.53;;;-1.00;85.80;;;;;;4888280;29;20996;-75
2023/12/03 05:01:06;;;;;;;2.00;1.03;;;-0.90;87.40;;;;;;4887290;29;20450;-72
2023/12/03 05:03:34;;;;;;;10.17;3.73;;;-0.90;84.30;;;;;;4894181;29;20453;-71
2023/12/03 05:06:02;;;;;;;8.30;3.83;;;-0.90;83.30;;;;;;4879552;29;20525;-73
2023/12/03 05:08:30;;;;;;;2.67;1.37;;;-1.00;80.60;;;;;;4881354;29;20451;-74
2023/12/03 05:10:58;;;;;;;4.70;2.83;;;-1.10;83.10;;;;;;4890293;29;20495;-72
2023/12/03 05:13:27;;;;;;;6.60;1.43;;;-1.00;85.70;;;;;;4884500;29;20481;-72
2023/12/03 05:15:55;;;;;;;6.97;2.00;;;-0.90;86.50;;;;;;4881709;29;20549;-71
2023/12/03 05:18:23;;;;;;;0.90;0.73;;;-1.00;85.80;;;;;;4885330;29;20489;-73
2023/12/03 05:20:51;;;;;;;4.40;4.00;;;-1.00;87.10;;;;;;4879949;29;20876;-71
2023/12/03 05:23:19;;;;;;;5.20;2.23;;;-1.00;85.30;;;;;;4879498;29;20628;-72
2023/12/03 05:25:47;;;;;;;0.70;0.40;;;-1.00;88.00;;;;;;4886743;29;20521;-72
2023/12/03 05:28:16;;;;;;;4.70;4.27;;;-1.00;86.60;;;;;;4888597;29;20465;-72
2023/12/03 05:30:46;;;;;;;5.60;2.20;;;-1.00;86.20;;;;;;4892304;29;20498;-73
2023/12/03 05:33:14;;;;;;;0.97;0.47;;;-1.10;88.10;;;;;;4898952;29;20485;-74
2023/12/03 05:35:42;;;;;;;3.50;2.20;;;-1.20;89.10;;;;;;4882961;29;20457;-74
2023/12/03 05:38:10;;;;;;;1.37;0.43;;;-1.20;90.20;;;;;;4880663;29;20461;-74
2023/12/03 05:40:38;;;;;;;1.53;1.23;;;-1.20;90.90;;;;;;4895235;29;20500;-72
2023/12/03 05:43:05;;;;;;;20.60;7.87;;;-1.20;91.10;;;;;;4887496;29;20877;-73
2023/12/03 05:45:34;;;;;;;12.17;5.70;;;-1.30;90.60;;;;;;4878848;29;20949;-72
2023/12/03 05:48:03;;;;;;;2.40;1.03;;;-1.40;91.40;;;;;;4890399;29;20472;-73
2023/12/03 05:50:30;;;;;;;2.90;2.53;;;-1.40;93.80;;;;;;4900661;29;20521;-71
2023/12/03 05:52:58;;;;;;;3.40;1.20;;;-1.30;94.20;;;;;;4884658;29;21033;-72
2023/12/03 05:55:26;;;;;;;5.80;4.30;;;-1.50;94.10;;;;;;4891874;29;20841;-73
2023/12/03 05:57:54;;;;;;;5.37;1.60;;;-1.40;94.90;;;;;;4878785;29;20518;-73
2023/12/03 06:00:22;;;;;;;14.83;7.07;;;-1.20;96.70;;;;;;4879425;29;20794;-72
2023/12/03 06:02:50;;;;;;;2.73;2.53;;;-1.20;96.60;;;;;;4878974;29;20462;-73
2023/12/03 06:05:19;;;;;;;1.80;1.07;;;-1.20;95.90;;;;;;4879040;29;20462;-74
2023/12/03 06:07:47;;;;;;;2.33;2.13;;;-1.30;95.50;;;;;;4878629;29;20470;-72
2023/12/03 06:10:15;;;;;;;3.70;2.53;;;-1.20;94.90;;;;;;4878883;29;20458;-73
2023/12/03 06:12:42;;;;;;;0.70;0.17;;;-1.30;95.30;;;;;;4880355;29;20486;-75
2023/12/03 06:15:11;;;;;;;1.70;1.60;;;-1.20;96.00;;;;;;4890004;29;20453;-74
2023/12/03 06:17:39;;;;;;;1.90;1.27;;;-1.20;96.30;;;;;;4882038;29;20507;-73
2023/12/03 06:20:08;;;;;;;0.70;0.40;;;-1.10;96.30;;;;;;4878441;29;20472;-72
2023/12/03 06:22:38;;;;;;;0.70;0.10;;;-1.10;95.70;;;;;;4881369;29;20522;-72
2023/12/03 06:25:08;;;;;;;11.73;4.77;;;-1.10;95.20;;;;;;4901133;29;20477;-73
2023/12/03 06:27:36;;;;;;;2.70;2.33;;;-1.00;95.10;;;;;;4892501;29;20839;-74
2023/12/03 06:30:04;;;;;;;10.63;2.83;;;-1.00;94.30;;;;;;4898993;29;20460;-74
2023/12/03 06:32:32;;;;;;;0.70;0.20;;;-1.00;94.00;;;;;;4886146;29;20538;-71
2023/12/03 06:35:00;;;;;;;0.70;0.10;;;-0.90;94.10;;;;;;4882549;29;20458;-72
2023/12/03 06:37:28;;;;;;;4.83;1.50;;;-0.90;92.80;;;;;;4880899;29;20907;-73
2023/12/03 06:39:57;;;;;;;0.70;0.10;;;-0.90;92.70;;;;;;4890829;29;20892;-72
2023/12/03 06:42:25;;;;;;;0.70;0.10;;;-0.90;92.50;;;;;;4897392;29;20870;-74
2023/12/03 06:44:54;;;;;;;0.93;0.80;;;-0.90;92.70;;;;;;4888312;29;20461;-73
2023/12/03 06:47:22;;;;;;;4.30;3.90;;;-0.90;91.40;;;;;;4878146;29;20895;-73
2023/12/03 06:49:50;;;;;;;0.70;0.10;;;-0.90;91.90;;;;;;4888677;29;20550;-74
2023/12/03 06:52:17;;;;;;;0.80;0.60;;;-0.90;92.40;;;;;;4891876;29;20489;-75
2023/12/03 06:54:45;;;;;;;1.63;0.60;;;-0.90;92.40;;;;;;4882496;29;20510;-74
2023/12/03 06:57:15;;;;;;;0.80;0.50;;;-0.80;92.00;;;;;;4884299;29;20508;-73
2023/12/03 06:59:43;;;;;;;7.47;2.20;;;-0.70;92.50;;;;;;4892218;29;20454;-73
2023/12/03 07:02:11;;;;;;;0.80;0.70;;;-0.70;91.90;;;;;;4880246;29;20471;-72
2023/12/03 07:04:39;;;;;;;0.70;0.10;;;-0.70;92.50;;;;;;4878799;29;20462;-73
2023/12/03 07:07:07;;;;;;;0.70;0.30;;;-0.60;92.60;;;;;;4879375;29;20477;-72
2023/12/03 07:09:35;;;;;;;0.70;0.10;;;-0.60;92.40;;;;;;4880672;29;20450;-74
2023/12/03 07:12:07;;;;;;;0.70;0.10;;;-0.70;91.00;;;;;;4895343;29;20534;-71
2023/12/03 07:14:37;;;;;;;0.67;0.10;;;-0.60;92.20;;;;;;4894283;29;20453;-71
2023/12/03 07:17:05;;;;;;;0.70;0.10;;;-0.50;92.10;;;;;;4901200;29;20465;-73
2023/12/03 07:19:32;;;;;;;0.70;0.10;;;-0.50;91.60;;;;;;4901680;29;20488;-73
2023/12/03 07:22:00;;;;;;;0.70;0.10;;;-0.50;90.80;;;;;;4902427;29;21021;-73
2023/12/03 07:24:28;;;;;;;0.70;0.30;;;-0.50;91.30;;;;;;4902859;29;20967;-74
2023/12/03 07:26:56;;;;;;;1.00;0.40;;;-0.50;90.20;;;;;;4901819;29;20471;-72
2023/12/03 07:29:24;;;;;;;1.10;0.97;;;-0.50;90.00;;;;;;4902528;29;20910;-75
2023/12/03 07:31:53;;;;;;;0.60;0.10;;;-0.50;90.10;;;;;;4901364;29;20596;-75
2023/12/03 07:34:21;;;;;;;0.70;0.10;;;-0.40;90.40;;;;;;4901589;29;20464;-74
2023/12/03 07:36:49;;;;;;;1.07;0.97;;;-0.40;88.80;;;;;;4899513;29;20473;-73
2023/12/03 07:39:18;;;;;;;0.70;0.10;;;-0.40;89.50;;;;;;4903855;29;20518;-74
2023/12/03 07:41:50;;;;;;;0.70;0.10;;;-0.40;89.50;;;;;;4902218;29;20551;-71
2023/12/03 07:44:17;;;;;;;1.00;0.90;;;-0.50;87.70;;;;;;4903557;29;20542;-74
2023/12/03 07:46:45;;;;;;;0.70;0.10;;;-0.50;89.70;;;;;;4903066;29;20567;-73
2023/12/03 07:49:15;;;;;;;8.57;2.80;;;-0.50;90.60;;;;;;4911097;29;20497;-71
2023/12/03 07:51:45;;;;;;;1.30;1.00;;;-0.60;90.50;;;;;;4909396;29;20459;-75
2023/12/03 07:54:13;;;;;;;0.70;0.20;;;-0.60;90.40;;;;;;4908423;29;20452;-73
2023/12/03 07:56:42;;;;;;;2.93;1.23;;;-0.60;91.60;;;;;;4904927;29;20546;-72
2023/12/03 07:59:11;;;;;;;11.13;2.53;;;-0.50;91.80;;;;;;4902387;29;20489;-73
2023/12/03 08:01:39;;;;;;;0.70;0.10;;;-0.40;92.20;;;;;;4894876;29;20450;-74
2023/12/03 08:04:07;;;;;;;0.70;0.10;;;-0.40;92.80;;;;;;4900190;29;20450;-74
2023/12/03 08:06:36;;;;;;;0.63;0.10;;;-0.30;93.00;;;;;;4899837;29;20533;-72
2023/12/03 08:09:05;;;;;;;0.70;0.30;;;-0.30;92.60;;;;;;4900153;29;20487;-73
2023/12/03 08:11:33;;;;;;;0.70;0.10;;;-0.20;92.40;;;;;;4900317;29;20457;-73
2023/12/03 08:14:01;;;;;;;0.70;0.40;;;-0.30;92.00;;;;;;4901037;29;20524;-74
2023/12/03 08:16:28;;;;;;;0.73;0.30;;;-0.30;94.10;;;;;;4900499;29;20465;-72
2023/12/03 08:18:56;;;;;;;0.70;0.30;;;-0.20;94.50;;;;;;4900116;29;21035;-73
2023/12/03 08:21:24;;;;;;;0.70;0.47;;;-0.20;94.80;;;;;;4899662;29;20512;-71
2023/12/03 08:23:54;;;;;;;8.43;6.60;;;-0.30;91.50;;;;;;4896202;29;20480;-72
2023/12/03 08:26:21;;;;;;;1.00;0.30;;;-0.50;91.00;;;;;;4888938;29;20472;-72
2023/12/03 08:28:49;;;;;;;0.90;0.63;;;-0.50;91.60;;;;;;4885124;29;20452;-73
2023/12/03 08:31:17;;;;;;;13.50;4.03;;;-0.50;92.40;;;;;;4883456;29;20533;-72
2023/12/03 08:33:45;;;;;;;5.50;4.83;;;-0.70;91.20;;;;;;4880295;29;20572;-73
2023/12/03 08:36:17;;;;;;;9.33;2.50;;;-0.70;93.40;;;;;;4884150;29;20489;-73
2023/12/03 08:38:45;;;;;;;8.23;3.57;;;-0.60;93.80;;;;;;4893766;29;20459;-75
2023/12/03 08:41:14;;;;;;;7.33;2.73;;;-0.80;92.80;;;;;;4889426;29;20453;-73
2023/12/03 08:43:42;;;;;;;4.17;3.70;;;-0.90;93.50;;;;;;4881578;29;20473;-73
2023/12/03 08:46:10;;;;;;;6.30;4.33;;;-1.00;93.90;;;;;;4880715;29;20513;-73
2023/12/03 08:48:38;;;;;;;14.77;6.63;;;-1.10;95.10;;;;;;4879902;29;20465;-72
2023/12/03 08:51:07;;;;;;;8.57;4.20;;;-1.10;98.10;;;;;;4880656;29;20541;-74
2023/12/03 08:53:35;;;;;;;1.00;0.73;;;-1.20;99.00;;;;;;4880941;29;20489;-73
2023/12/03 08:56:03;;;;;;;5.23;4.83;;;-1.10;99.90;;;;;;4886545;29;20475;-73
2023/12/03 08:58:32;;;;;;;13.37;3.73;;;-1.10;99.90;;;;;;4903869;29;20541;-72
2023/12/03 09:01:00;;;;;;;2.87;2.47;;;-1.20;99.90;;;;;;4887543;29;20966;-75
2023/12/03 09:03:28;;;;;;;10.93;4.63;;;-1.20;99.90;;;;;;4891120;29;20442;-74
2023/12/03 09:05:56;;;;;;;1.37;1.27;;;-1.20;99.90;;;;;;4883941;29;20462;-71
2023/12/03 09:08:24;;;;;;;3.80;2.47;;;-1.00;99.90;;;;;;4893282;29;20453;-72
2023/12/03 09:10:52;;;;;;;3.20;2.90;;;-1.00;99.90;;;;;;4883480;29;20559;-73
2023/12/03 09:13:20;;;;;;;0.97;0.83;;;-1.00;99.90;;;;;;4885366;29;20505;-74
2023/12/03 09:15:50;;;;;;;6.27;3.80;;;-0.90;99.90;;;;;;4892521;29;20514;-73
2023/12/03 09:18:19;;;;;;;21.03;6.80;;;;;;;;;;4881190;29;20450;-74
2023/12/03 09:20:47;;;;;;;0.90;0.83;;;-0.90;99.90;;;;;;4888115;29;20445;-75
2023/12/03 09:23:15;;;;;;;1.27;0.73;;;-0.70;99.90;;;;;;4891091;29;20439;-73
2023/12/03 09:25:42;;;;;;;0.70;0.10;;;-0.60;99.90;;;;;;4890768;29;20446;-73
2023/12/03 09:28:11;;;;;;;0.70;0.40;;;-0.60;99.90;;;;;;4896901;29;20460;-73
2023/12/03 09:30:39;;;;;;;6.20;5.50;;;-0.50;99.90;;;;;;4889488;29;20455;-73
2023/12/03 09:33:08;;;;;;;1.00;0.60;;;-0.40;99.90;;;;;;4888058;29;20572;-72
2023/12/03 09:35:36;;;;;;;6.73;3.23;;;-0.30;99.90;;;;;;4887808;29;20548;-72
2023/12/03 09:38:05;;;;;;;0.70;0.20;;;;;;;;;;4896860;29;20528;-75
2023/12/03 09:40:33;;;;;;;1.73;1.13;;;;;;;;;;4879748;29;20461;-75
2023/12/03 09:43:05;;;;;;;0.70;0.10;;;0.00;99.90;;;;;;4879722;29;20984;-74
2023/12/03 09:45:34;;;;;;;0.70;0.10;;;0.10;99.90;;;;;;4885439;29;20462;-73
2023/12/03 09:48:03;;;;;;;2.53;2.33;;;0.20;98.80;;;;;;4882524;29;20570;-73
2023/12/03 09:50:35;;;;;;;0.70;0.10;;;0.30;98.00;;;;;;4893215;29;20450;-73
2023/12/03 09:53:06;;;;;;;0.70;0.20;;;0.40;97.50;;;;;;4879647;29;20525;-72
2023/12/03 09:55:35;;;;;;;0.70;0.10;;;0.50;96.60;;;;;;4892824;29;20449;-74
2023/12/03 09:58:04;;;;;;;0.70;0.20;;;0.60;95.40;;;;;;4890426;29;20478;-74
2023/12/03 10:00:32;;;;;;;0.70;0.10;;;0.70;94.90;;;;;;4891258;29;20489;-75
2023/12/03 10:03:00;;;;;;;0.70;0.40;;;0.70;91.90;;;;;;4886228;29;20496;-74
2023/12/03 10:05:28;;;;;;;2.10;1.27;;;0.70;90.80;;;;;;4880027;29;20450;-73
2023/12/03 10:07:59;;;;;;;1.07;0.70;;;0.70;85.90;;;;;;4879878;29;20478;-73
2023/12/03 10:10:31;;;;;;;3.80;2.43;;;0.80;93.80;;;;;;4885822;29;20475;-75
2023/12/03 10:13:00;;;;;;;0.70;0.30;;;0.90;92.40;;;;;;4890539;29;20527;-74
2023/12/03 10:15:29;;;;;;;5.30;3.00;;;0.70;84.80;;;;;;4884091;29;20477;-73
2023/12/03 10:17:57;;;;;;;2.13;1.60;;;0.50;77.10;;;;;;4886697;29;20485;-74
2023/12/03 10:20:27;;;;;;;2.20;2.00;;;0.40;76.60;;;;;;4885445;29;20968;-72
2023/12/03 10:23:00;;;;;;;7.93;4.07;;;0.40;79.10;;;;;;4879660;29;20454;-73
2023/12/03 10:25:29;;;;;;;9.73;5.77;;;0.30;78.10;;;;;;4881227;29;20866;-71
2023/12/03 10:27:58;;;;;;;16.00;9.43;;;0.20;79.20;;;;;;4895019;29;20479;-72
2023/12/03 10:30:27;;;;;;;6.63;3.70;;;0.00;81.20;;;;;;4890971;29;20458;-72
2023/12/03 10:32:55;;;;;;;5.77;3.57;;;-0.10;84.20;;;;;;4891660;29;20830;-72
2023/12/03 10:35:24;;;;;;;13.43;5.03;;;-0.20;86.80;;;;;;4891072;29;20569;-73
2023/12/03 10:37:52;;;;;;;8.23;3.60;;;-0.10;88.40;;;;;;4902232;29;20632;-74
2023/12/03 10:40:22;;;;;;;20.07;7.80;;;-0.20;86.00;;;;;;4900977;29;20454;-73
2023/12/03 10:42:50;;;;;;;15.23;8.20;;;-0.30;87.50;;;;;;4882502;29;20450;-74
2023/12/03 10:45:17;;;;;;;8.90;4.10;;;-0.30;90.10;;;;;;4888695;29;20453;-75
2023/12/03 10:47:45;;;;;;;8.30;4.10;;;-0.20;90.40;;;;;;4887711;29;20492;-71
2023/12/03 10:50:14;;;;;;;17.57;6.43;;;-0.30;91.20;;;;;;4881621;29;20464;-72
2023/12/03 10:52:43;;;;;;;12.53;6.23;;;;;;;;;;4879220;29;20553;-75
2023/12/03 10:55:11;;;;;;;2.63;2.43;;;0.10;92.70;;;;;;4878614;29;20545;-73
2023/12/03 10:57:52;;;;;;;2.43;2.23;;;0.20;92.00;;;;;;4883715;29;21051;-74
2023/12/03 11:00:22;;;;;;;9.70;4.93;;;0.30;86.70;;;;;;4886465;29;20478;-74
2023/12/03 11:02:58;;;;;;;3.77;3.20;;;0.30;86.60;;;;;;4879293;29;20457;-72
2023/12/03 11:05:32;;;;;;;10.30;9.80;;;0.40;86.00;;;;;;4889590;29;20476;-74
2023/12/03 11:08:02;;;;;;;0.77;0.20;;;0.50;88.30;;;;;;4888464;29;20493;-75
2023/12/03 11:10:30;;;;;;;3.90;3.20;;;0.60;87.80;;;;;;4889423;29;20496;-73
2023/12/03 11:13:01;;;;;;;5.77;3.90;;;;;;;;;;4899522;29;20465;-76
2023/12/03 11:15:29;;;;;;;2.47;1.80;;;;;;;;;;4910057;29;20531;-74
2023/12/03 11:17:59;;;;;;;0.80;0.47;;;0.80;83.30;;;;;;4900866;29;20481;-73
2023/12/03 11:20:35;;;;;;;6.00;3.90;;;0.80;83.50;;;;;;4884647;29;20945;-73
2023/12/03 11:23:21;;;;;;;0.80;0.40;;;0.80;79.50;;;;;;4883566;29;20446;-73
2023/12/03 11:25:55;;;;;;;0.80;0.20;;;0.90;81.70;;;;;;4889501;29;20442;-74
2023/12/03 11:28:26;;;;;;;2.37;2.17;;;0.90;91.60;;;;;;4894210;29;20441;-72
2023/12/03 11:30:54;;;;;;;6.23;2.70;;;1.10;81.00;;;;;;4890889;29;20450;-72
2023/12/03 11:33:24;;;;;;;0.70;0.10;;;;;;;;;;4883279;29;20521;-75
2023/12/03 11:35:53;;;;;;;0.70;0.10;;;1.30;85.70;;;;;;4891279;29;20517;-73
2023/12/03 11:38:32;;;;;;;3.07;1.33;;;1.50;83.30;;;;;;4892161;29;20917;-72
2023/12/03 11:41:01;;;;;;;0.73;0.27;;;1.60;76.40;;;;;;4885591;29;20949;-74
2023/12/03 11:43:31;;;;;;;1.47;1.13;;;1.50;72.60;;;;;;4882247;29;20486;-74
2023/12/03 11:45:59;;;;;;;1.50;1.40;;;1.50;71.90;;;;;;4881979;29;20540;-75
2023/12/03 11:48:29;;;;;;;0.70;0.10;;;1.50;71.90;;;;;;4882727;29;20495;-74
2023/12/03 11:50:58;;;;;;;4.33;2.70;;;1.60;71.90;;;;;;4886909;29;20474;-75
2023/12/03 11:53:38;;;;;;;2.50;2.30;;;1.50;68.50;;;;;;4887913;29;20445;-74
2023/12/03 11:56:08;;;;;;;0.70;0.10;;;1.50;70.60;;;;;;4886127;29;20525;-73
2023/12/03 11:58:38;;;;;;;0.90;0.67;;;1.50;70.20;;;;;;4888284;29;20449;-73
2023/12/03 12:01:06;;;;;;;1.80;1.70;;;1.50;68.60;;;;;;4900478;29;20485;-74
2023/12/03 12:03:35;;;;;;;1.80;1.70;;;1.40;70.50;;;;;;4896495;29;20442;-74
2023/12/03 12:06:03;;;;;;;0.70;0.10;;;1.50;72.40;;;;;;4889202;29;21054;-74
2023/12/03 12:08:31;;;;;;;0.70;0.10;;;1.60;73.00;;;;;;4893200;29;20465;-74
2023/12/03 12:10:59;;;;;;;0.70;0.10;;;1.70;73.70;;;;;;4900305;29;20453;-74
2023/12/03 12:13:27;;;;;;;1.00;0.80;;;1.80;74.30;;;;;;4899910;29;20441;-73
2023/12/03 12:15:57;;;;;;;0.70;0.10;;;1.90;73.60;;;;;;4900334;29;20571;-73
2023/12/03 12:18:25;;;;;;;2.73;1.73;;;2.00;71.30;;;;;;4899896;29;20566;-73
2023/12/03 12:21:05;;;;;;;8.00;2.63;;;2.00;67.40;;;;;;4886216;29;20458;-75
2023/12/03 12:23:33;;;;;;;0.70;0.10;;;1.90;63.70;;;;;;4892233;29;20505;-72
2023/12/03 12:26:01;;;;;;;0.70;0.10;;;;;;;;;;4892448;29;20475;-73
2023/12/03 12:28:29;;;;;;;1.53;1.43;;;2.10;66.40;;;;;;4884910;29;20454;-73
2023/12/03 12:30:58;;;;;;;0.80;0.30;;;2.20;65.00;;;;;;4881243;29;20953;-72
2023/12/03 12:33:27;;;;;;;1.43;1.33;;;2.30;64.40;;;;;;4836728;29;20503;-73
2023/12/03 12:36:00;;;;;;;1.17;1.03;;;2.40;68.20;;;;;;4869294;29;20557;-72
2023/12/03 12:38:44;;;;;;;1.63;1.53;;;2.50;69.00;;;;;;4858650;29;20912;-75
2023/12/03 12:41:13;;;;;;;0.70;0.10;;;;;;;;;;4830824;29;20487;-76
2023/12/03 12:44:00;;;;;;;1.53;1.43;;;;;;;;;;4870041;29;20448;-74
2023/12/03 12:46:51;;;;;;;0.70;0.20;;;2.40;55.80;;;;;;4863196;29;20817;-73
2023/12/03 12:49:19;;;;;;;0.70;0.10;;;2.30;56.40;;;;;;4873478;29;20537;-73
2023/12/03 12:51:47;;;;;;;1.07;0.80;;;2.50;56.70;;;;;;4876064;29;20538;-72
2023/12/03 12:54:16;;;;;;;0.70;0.10;;;2.50;56.50;;;;;;4862052;29;20455;-72
2023/12/03 12:56:52;;;;;;;0.70;0.20;;;2.60;55.60;;;;;;4862127;29;20475;-75
2023/12/03 12:59:20;;;;;;;0.70;0.10;;;2.60;54.30;;;;;;4862511;29;20447;-75
2023/12/03 13:01:49;;;;;;;0.70;0.10;;;2.70;53.30;;;;;;4862244;29;20451;-76
2023/12/03 13:04:17;;;;;;;0.70;0.20;;;2.70;54.10;;;;;;4862428;29;20455;-73
2023/12/03 13:06:46;;;;;;;2.20;0.87;;;2.70;49.20;;;;;;4868222;29;20478;-78
2023/12/03 13:09:18;;;;;;;0.70;0.10;;;2.60;49.00;;;;;;4869219;29;20470;-75
2023/12/03 13:11:46;;;;;;;0.70;0.10;;;2.70;50.10;;;;;;4871865;29;20957;-73
2023/12/03 13:14:14;;;;;;;0.70;0.10;;;2.80;50.30;;;;;;4875341;29;20518;-75
2023/12/03 13:16:42;;;;;;;0.70;0.10;;;2.80;50.20;;;;;;4868683;29;20930;-72
2023/12/03 13:19:11;;;;;;;0.80;0.20;;;2.80;49.20;;;;;;4872062;29;20482;-71
2023/12/03 13:21:39;;;;;;;0.70;0.10;;;2.90;49.60;;;;;;4870720;29;20447;-74